sensor_id;sensor_type;location;lat;lon;timestamp;temperature;humidity
8896;DHT22;4484;48.928;10.066;2023-01-28T00:00:48;-1.70;99.90
8896;DHT22;4484;48.928;10.066;2023-01-28T00:03:15;-1.60;99.90
8896;DHT22;4484;48.928;10.066;2023-01-28T00:05:42;-1.60;99.90
8896;DHT22;4484;48.928;10.066;2023-01-28T00:08:09;-1.60;99.90
8896;DHT22;4484;48.928;10.066;2023-01-28T00:10:37;-1.60;99.90
8896;DHT22;4484;48.928;10.066;2023-01-28T00:13:06;-1.60;99.90
8896;DHT22;4484;48.928;10.066;2023-01-28T00:15:33;-1.60;99.90
8896;DHT22;4484;48.928;10.066;2023-01-28T00:18:00;-1.60;99.90
8896;DHT22;4484;48.928;10.066;2023-01-28T00:20:27;-1.60;99.90
8896;DHT22;4484;48.928;10.066;2023-01-28T00:22:54;-1.60;99.90
8896;DHT22;4484;48.928;10.066;2023-01-28T00:25:20;-1.60;99.90
8896;DHT22;4484;48.928;10.066;2023-01-28T00:27:48;-1.60;99.90
8896;DHT22;4484;48.928;10.066;2023-01-28T00:30:16;-1.60;99.90
8896;DHT22;4484;48.928;10.066;2023-01-28T00:32:42;-1.60;99.90
8896;DHT22;4484;48.928;10.066;2023-01-28T00:35:11;-1.60;99.90
8896;DHT22;4484;48.928;10.066;2023-01-28T00:37:40;-1.60;99.90
8896;DHT22;4484;48.928;10.066;2023-01-28T00:40:07;-1.60;99.90
8896;DHT22;4484;48.928;10.066;2023-01-28T00:42:35;-1.60;99.90
8896;DHT22;4484;48.928;10.066;2023-01-28T00:45:03;-1.60;99.90
8896;DHT22;4484;48.928;10.066;2023-01-28T00:47:30;-1.60;99.90
8896;DHT22;4484;48.928;10.066;2023-01-28T00:49:57;-1.60;99.90
8896;DHT22;4484;48.928;10.066;2023-01-28T00:52:23;-1.60;99.90
8896;DHT22;4484;48.928;10.066;2023-01-28T00:54:53;-1.60;99.90
8896;DHT22;4484;48.928;10.066;2023-01-28T00:57:20;-1.60;99.90
8896;DHT22;4484;48.928;10.066;2023-01-28T00:59:46;-1.60;99.90
8896;DHT22;4484;48.928;10.066;2023-01-28T01:02:13;-1.60;99.90
8896;DHT22;4484;48.928;10.066;2023-01-28T01:04:40;-1.60;99.90
8896;DHT22;4484;48.928;10.066;2023-01-28T01:07:22;-1.60;99.90
8896;DHT22;4484;48.928;10.066;2023-01-28T01:10:01;-1.60;99.90
8896;DHT22;4484;48.928;10.066;2023-01-28T01:12:28;-1.60;99.90
8896;DHT22;4484;48.928;10.066;2023-01-28T01:14:56;-1.60;99.90
8896;DHT22;4484;48.928;10.066;2023-01-28T01:17:23;-1.60;99.90
8896;DHT22;4484;48.928;10.066;2023-01-28T01:19:50;-1.60;99.90
8896;DHT22;4484;48.928;10.066;2023-01-28T01:22:19;-1.50;99.90
8896;DHT22;4484;48.928;10.066;2023-01-28T01:24:47;-1.50;99.90
8896;DHT22;4484;48.928;10.066;2023-01-28T01:27:14;-1.50;99.90
8896;DHT22;4484;48.928;10.066;2023-01-28T01:29:40;-1.50;99.90
8896;DHT22;4484;48.928;10.066;2023-01-28T01:32:07;-1.50;99.90
8896;DHT22;4484;48.928;10.066;2023-01-28T01:34:34;-1.50;99.90
8896;DHT22;4484;48.928;10.066;2023-01-28T01:37:01;-1.50;99.90
8896;DHT22;4484;48.928;10.066;2023-01-28T01:39:30;-1.40;99.90
8896;DHT22;4484;48.928;10.066;2023-01-28T01:41:58;-1.40;99.90
8896;DHT22;4484;48.928;10.066;2023-01-28T01:44:57;-1.40;99.90
8896;DHT22;4484;48.928;10.066;2023-01-28T01:47:35;-1.40;99.90
8896;DHT22;4484;48.928;10.066;2023-01-28T01:50:28;-1.40;99.90
8896;DHT22;4484;48.928;10.066;2023-01-28T01:53:03;-1.40;99.90
8896;DHT22;4484;48.928;10.066;2023-01-28T01:55:34;-1.40;99.90
8896;DHT22;4484;48.928;10.066;2023-01-28T01:58:06;-1.40;99.90
8896;DHT22;4484;48.928;10.066;2023-01-28T02:00:35;-1.40;99.90
8896;DHT22;4484;48.928;10.066;2023-01-28T02:03:02;-1.40;99.90
8896;DHT22;4484;48.928;10.066;2023-01-28T02:05:29;-1.40;99.90
8896;DHT22;4484;48.928;10.066;2023-01-28T02:07:57;-1.40;99.90
8896;DHT22;4484;48.928;10.066;2023-01-28T02:10:44;-1.40;99.90
8896;DHT22;4484;48.928;10.066;2023-01-28T02:13:12;-1.40;99.90
8896;DHT22;4484;48.928;10.066;2023-01-28T02:15:39;-1.40;99.90
8896;DHT22;4484;48.928;10.066;2023-01-28T02:18:07;-1.40;99.90
8896;DHT22;4484;48.928;10.066;2023-01-28T02:20:59;-1.40;99.90
8896;DHT22;4484;48.928;10.066;2023-01-28T02:29:30;-1.40;99.90
8896;DHT22;4484;48.928;10.066;2023-01-28T02:32:35;-1.40;99.90
8896;DHT22;4484;48.928;10.066;2023-01-28T02:35:09;-1.40;99.90
8896;DHT22;4484;48.928;10.066;2023-01-28T02:37:59;-1.40;99.90
8896;DHT22;4484;48.928;10.066;2023-01-28T02:40:33;-1.40;99.90
8896;DHT22;4484;48.928;10.066;2023-01-28T02:43:42;-1.40;99.90
8896;DHT22;4484;48.928;10.066;2023-01-28T02:46:33;-1.50;99.90
8896;DHT22;4484;48.928;10.066;2023-01-28T02:49:35;-1.40;99.90
8896;DHT22;4484;48.928;10.066;2023-01-28T02:57:24;-1.40;99.90
8896;DHT22;4484;48.928;10.066;2023-01-28T03:00:18;-1.50;99.90
8896;DHT22;4484;48.928;10.066;2023-01-28T03:03:10;-1.40;99.90
8896;DHT22;4484;48.928;10.066;2023-01-28T03:05:46;-1.40;99.90
8896;DHT22;4484;48.928;10.066;2023-01-28T03:08:45;-1.40;99.90
8896;DHT22;4484;48.928;10.066;2023-01-28T03:11:33;-1.40;99.90
8896;DHT22;4484;48.928;10.066;2023-01-28T03:14:20;-1.40;99.90
8896;DHT22;4484;48.928;10.066;2023-01-28T03:17:14;-1.40;99.90
8896;DHT22;4484;48.928;10.066;2023-01-28T03:20:02;-1.40;99.90
8896;DHT22;4484;48.928;10.066;2023-01-28T03:22:50;-1.40;99.90
8896;DHT22;4484;48.928;10.066;2023-01-28T03:25:40;-1.40;99.90
8896;DHT22;4484;48.928;10.066;2023-01-28T03:28:28;-1.40;99.90
8896;DHT22;4484;48.928;10.066;2023-01-28T03:31:17;-1.40;99.90
8896;DHT22;4484;48.928;10.066;2023-01-28T03:34:05;-1.40;99.90
8896;DHT22;4484;48.928;10.066;2023-01-28T03:36:53;-1.40;99.90
8896;DHT22;4484;48.928;10.066;2023-01-28T03:39:36;-1.30;99.90
8896;DHT22;4484;48.928;10.066;2023-01-28T03:42:10;-1.30;99.90
8896;DHT22;4484;48.928;10.066;2023-01-28T03:45:07;-1.30;99.90
8896;DHT22;4484;48.928;10.066;2023-01-28T03:47:35;-1.40;99.90
8896;DHT22;4484;48.928;10.066;2023-01-28T03:50:04;-1.30;99.90
8896;DHT22;4484;48.928;10.066;2023-01-28T03:52:38;-1.30;99.90
8896;DHT22;4484;48.928;10.066;2023-01-28T03:55:15;-1.30;99.90
8896;DHT22;4484;48.928;10.066;2023-01-28T03:57:43;-1.30;99.90
8896;DHT22;4484;48.928;10.066;2023-01-28T04:00:11;-1.30;99.90
8896;DHT22;4484;48.928;10.066;2023-01-28T04:02:41;-1.30;99.90
8896;DHT22;4484;48.928;10.066;2023-01-28T04:05:11;-1.30;99.90
8896;DHT22;4484;48.928;10.066;2023-01-28T04:07:46;-1.30;99.90
8896;DHT22;4484;48.928;10.066;2023-01-28T04:10:33;-1.30;99.90
8896;DHT22;4484;48.928;10.066;2023-01-28T04:13:08;-1.30;99.90
8896;DHT22;4484;48.928;10.066;2023-01-28T04:15:38;-1.30;99.90
8896;DHT22;4484;48.928;10.066;2023-01-28T04:18:05;-1.30;99.90
8896;DHT22;4484;48.928;10.066;2023-01-28T04:20:33;-1.30;99.90
8896;DHT22;4484;48.928;10.066;2023-01-28T04:23:00;-1.30;99.90
8896;DHT22;4484;48.928;10.066;2023-01-28T04:25:28;-1.30;99.90
8896;DHT22;4484;48.928;10.066;2023-01-28T04:27:55;-1.30;99.90
8896;DHT22;4484;48.928;10.066;2023-01-28T04:30:24;-1.30;99.90
8896;DHT22;4484;48.928;10.066;2023-01-28T04:33:20;-1.30;99.90
8896;DHT22;4484;48.928;10.066;2023-01-28T04:36:09;-1.30;99.90
8896;DHT22;4484;48.928;10.066;2023-01-28T04:38:43;-1.30;99.90
8896;DHT22;4484;48.928;10.066;2023-01-28T04:41:29;-1.30;99.90
8896;DHT22;4484;48.928;10.066;2023-01-28T04:44:02;-1.30;99.90
8896;DHT22;4484;48.928;10.066;2023-01-28T04:46:52;-1.30;99.90
8896;DHT22;4484;48.928;10.066;2023-01-28T04:49:43;-1.30;99.90
8896;DHT22;4484;48.928;10.066;2023-01-28T04:52:23;-1.30;99.90
8896;DHT22;4484;48.928;10.066;2023-01-28T04:55:15;-1.30;99.90
8896;DHT22;4484;48.928;10.066;2023-01-28T04:57:45;-1.30;99.90
8896;DHT22;4484;48.928;10.066;2023-01-28T05:00:14;-1.30;99.90
8896;DHT22;4484;48.928;10.066;2023-01-28T05:02:41;-1.30;99.90
8896;DHT22;4484;48.928;10.066;2023-01-28T05:05:08;-1.30;99.90
8896;DHT22;4484;48.928;10.066;2023-01-28T05:08:01;-1.30;99.90
8896;DHT22;4484;48.928;10.066;2023-01-28T05:10:28;-1.30;99.90
8896;DHT22;4484;48.928;10.066;2023-01-28T05:12:56;-1.30;99.90
8896;DHT22;4484;48.928;10.066;2023-01-28T05:15:23;-1.30;99.90
8896;DHT22;4484;48.928;10.066;2023-01-28T05:17:54;-1.30;99.90
8896;DHT22;4484;48.928;10.066;2023-01-28T05:20:22;-1.20;99.90
8896;DHT22;4484;48.928;10.066;2023-01-28T05:22:49;-1.30;99.90
8896;DHT22;4484;48.928;10.066;2023-01-28T05:25:19;-1.30;99.90
8896;DHT22;4484;48.928;10.066;2023-01-28T05:27:50;-1.30;99.90
8896;DHT22;4484;48.928;10.066;2023-01-28T05:30:18;-1.30;99.90
8896;DHT22;4484;48.928;10.066;2023-01-28T05:32:45;-1.30;99.90
8896;DHT22;4484;48.928;10.066;2023-01-28T05:35:15;-1.30;99.90
8896;DHT22;4484;48.928;10.066;2023-01-28T05:37:43;-1.30;99.90
8896;DHT22;4484;48.928;10.066;2023-01-28T05:40:10;-1.20;99.90
8896;DHT22;4484;48.928;10.066;2023-01-28T05:42:38;-1.20;99.90
8896;DHT22;4484;48.928;10.066;2023-01-28T05:45:25;-1.20;99.90
8896;DHT22;4484;48.928;10.066;2023-01-28T05:48:01;-1.20;99.90
8896;DHT22;4484;48.928;10.066;2023-01-28T05:50:47;-1.20;99.90
8896;DHT22;4484;48.928;10.066;2023-01-28T05:53:27;-1.20;99.90
8896;DHT22;4484;48.928;10.066;2023-01-28T05:55:54;-1.20;99.90
8896;DHT22;4484;48.928;10.066;2023-01-28T05:58:22;-1.20;99.90
8896;DHT22;4484;48.928;10.066;2023-01-28T06:00:48;-1.20;99.90
8896;DHT22;4484;48.928;10.066;2023-01-28T06:03:20;-1.20;99.90
8896;DHT22;4484;48.928;10.066;2023-01-28T06:05:47;-1.10;99.90
8896;DHT22;4484;48.928;10.066;2023-01-28T06:08:15;-1.10;99.90
8896;DHT22;4484;48.928;10.066;2023-01-28T06:10:41;-1.10;99.90
8896;DHT22;4484;48.928;10.066;2023-01-28T06:13:09;-1.10;99.90
8896;DHT22;4484;48.928;10.066;2023-01-28T06:16:01;-1.10;99.90
8896;DHT22;4484;48.928;10.066;2023-01-28T06:18:51;-1.10;99.90
8896;DHT22;4484;48.928;10.066;2023-01-28T06:21:18;-1.10;99.90
8896;DHT22;4484;48.928;10.066;2023-01-28T06:23:44;-1.10;99.90
8896;DHT22;4484;48.928;10.066;2023-01-28T06:26:12;-1.10;99.90
8896;DHT22;4484;48.928;10.066;2023-01-28T06:28:42;-1.10;99.90
8896;DHT22;4484;48.928;10.066;2023-01-28T06:31:09;-1.10;99.90
8896;DHT22;4484;48.928;10.066;2023-01-28T06:33:36;-1.10;99.90
8896;DHT22;4484;48.928;10.066;2023-01-28T06:36:03;-1.10;99.90
8896;DHT22;4484;48.928;10.066;2023-01-28T06:38:30;-1.10;99.90
8896;DHT22;4484;48.928;10.066;2023-01-28T06:40:57;-1.00;99.90
8896;DHT22;4484;48.928;10.066;2023-01-28T06:43:24;-1.00;99.90
8896;DHT22;4484;48.928;10.066;2023-01-28T06:45:54;-1.00;99.90
8896;DHT22;4484;48.928;10.066;2023-01-28T06:48:21;-1.00;99.90
8896;DHT22;4484;48.928;10.066;2023-01-28T06:50:48;-1.00;99.90
8896;DHT22;4484;48.928;10.066;2023-01-28T06:53:15;-1.10;99.90
8896;DHT22;4484;48.928;10.066;2023-01-28T06:55:42;-1.00;99.90
8896;DHT22;4484;48.928;10.066;2023-01-28T06:58:09;-1.00;99.90
8896;DHT22;4484;48.928;10.066;2023-01-28T07:00:36;-1.00;99.90
8896;DHT22;4484;48.928;10.066;2023-01-28T07:03:04;-1.00;99.90
8896;DHT22;4484;48.928;10.066;2023-01-28T07:05:31;-1.00;99.90
8896;DHT22;4484;48.928;10.066;2023-01-28T07:07:58;-1.00;99.90
8896;DHT22;4484;48.928;10.066;2023-01-28T07:10:24;-1.00;99.90
8896;DHT22;4484;48.928;10.066;2023-01-28T07:12:51;-1.00;99.90
8896;DHT22;4484;48.928;10.066;2023-01-28T07:15:18;-1.00;99.90
8896;DHT22;4484;48.928;10.066;2023-01-28T07:17:45;-1.00;99.90
8896;DHT22;4484;48.928;10.066;2023-01-28T07:20:13;-1.00;99.90
8896;DHT22;4484;48.928;10.066;2023-01-28T07:22:42;-1.00;99.90
8896;DHT22;4484;48.928;10.066;2023-01-28T07:25:10;-0.90;99.90
8896;DHT22;4484;48.928;10.066;2023-01-28T07:27:38;-1.00;99.90
8896;DHT22;4484;48.928;10.066;2023-01-28T07:30:05;-1.00;99.90
8896;DHT22;4484;48.928;10.066;2023-01-28T07:32:32;-1.00;99.90
8896;DHT22;4484;48.928;10.066;2023-01-28T07:34:58;-0.90;99.90
8896;DHT22;4484;48.928;10.066;2023-01-28T07:37:25;-0.90;99.90
8896;DHT22;4484;48.928;10.066;2023-01-28T07:39:52;-0.90;99.90
8896;DHT22;4484;48.928;10.066;2023-01-28T07:42:19;-0.90;99.90
8896;DHT22;4484;48.928;10.066;2023-01-28T07:44:46;-0.80;99.90
8896;DHT22;4484;48.928;10.066;2023-01-28T07:47:13;-0.80;99.90
8896;DHT22;4484;48.928;10.066;2023-01-28T07:49:40;-0.80;99.90
8896;DHT22;4484;48.928;10.066;2023-01-28T07:52:07;-0.80;99.90
8896;DHT22;4484;48.928;10.066;2023-01-28T07:54:34;-0.80;99.90
8896;DHT22;4484;48.928;10.066;2023-01-28T07:57:01;-0.70;99.90
8896;DHT22;4484;48.928;10.066;2023-01-28T07:59:28;-0.70;99.90
8896;DHT22;4484;48.928;10.066;2023-01-28T08:01:55;-0.70;99.90
8896;DHT22;4484;48.928;10.066;2023-01-28T08:04:22;-0.60;99.90
8896;DHT22;4484;48.928;10.066;2023-01-28T08:06:49;-0.60;99.90
8896;DHT22;4484;48.928;10.066;2023-01-28T08:09:17;-0.60;99.90
8896;DHT22;4484;48.928;10.066;2023-01-28T08:11:44;-0.60;99.90
8896;DHT22;4484;48.928;10.066;2023-01-28T08:14:11;-0.60;99.90
8896;DHT22;4484;48.928;10.066;2023-01-28T08:16:38;-0.50;99.90
8896;DHT22;4484;48.928;10.066;2023-01-28T08:19:05;-0.40;99.90
8896;DHT22;4484;48.928;10.066;2023-01-28T08:21:31;-0.40;99.90
8896;DHT22;4484;48.928;10.066;2023-01-28T08:23:58;-0.40;99.90
8896;DHT22;4484;48.928;10.066;2023-01-28T08:26:25;-0.40;99.90
8896;DHT22;4484;48.928;10.066;2023-01-28T08:28:52;-0.40;99.90
8896;DHT22;4484;48.928;10.066;2023-01-28T08:31:19;-0.30;99.90
8896;DHT22;4484;48.928;10.066;2023-01-28T08:33:46;-0.40;99.90
8896;DHT22;4484;48.928;10.066;2023-01-28T08:36:12;-0.40;99.90
8896;DHT22;4484;48.928;10.066;2023-01-28T08:38:39;-0.30;99.90
8896;DHT22;4484;48.928;10.066;2023-01-28T08:41:06;-0.30;99.90
8896;DHT22;4484;48.928;10.066;2023-01-28T08:43:33;-0.30;99.90
8896;DHT22;4484;48.928;10.066;2023-01-28T08:46:00;-0.30;99.90
8896;DHT22;4484;48.928;10.066;2023-01-28T08:48:27;-0.30;99.90
8896;DHT22;4484;48.928;10.066;2023-01-28T08:50:57;-0.30;99.90
8896;DHT22;4484;48.928;10.066;2023-01-28T08:53:24;-0.30;99.90
8896;DHT22;4484;48.928;10.066;2023-01-28T08:55:52;-0.30;99.90
8896;DHT22;4484;48.928;10.066;2023-01-28T08:58:19;-0.30;99.90
8896;DHT22;4484;48.928;10.066;2023-01-28T09:00:46;-0.30;99.90
8896;DHT22;4484;48.928;10.066;2023-01-28T09:03:14;-0.30;99.90
8896;DHT22;4484;48.928;10.066;2023-01-28T09:05:41;-0.20;99.90
8896;DHT22;4484;48.928;10.066;2023-01-28T09:08:13;-0.20;99.90
8896;DHT22;4484;48.928;10.066;2023-01-28T09:10:40;-0.20;99.90
8896;DHT22;4484;48.928;10.066;2023-01-28T09:13:13;-0.20;99.90
8896;DHT22;4484;48.928;10.066;2023-01-28T09:15:40;-0.20;99.90
8896;DHT22;4484;48.928;10.066;2023-01-28T09:18:08;-0.20;99.90
8896;DHT22;4484;48.928;10.066;2023-01-28T09:20:36;-0.20;99.90
8896;DHT22;4484;48.928;10.066;2023-01-28T09:23:03;-0.10;99.90
8896;DHT22;4484;48.928;10.066;2023-01-28T09:25:31;-0.10;99.90
8896;DHT22;4484;48.928;10.066;2023-01-28T09:27:58;-0.10;99.90
8896;DHT22;4484;48.928;10.066;2023-01-28T09:30:25;-0.10;99.90
8896;DHT22;4484;48.928;10.066;2023-01-28T09:32:53;-0.10;99.90
8896;DHT22;4484;48.928;10.066;2023-01-28T09:35:20;-0.10;99.90
8896;DHT22;4484;48.928;10.066;2023-01-28T09:37:47;-0.20;99.90
8896;DHT22;4484;48.928;10.066;2023-01-28T09:40:41;-0.20;99.90
8896;DHT22;4484;48.928;10.066;2023-01-28T09:45:46;-0.10;99.90
8896;DHT22;4484;48.928;10.066;2023-01-28T09:48:18;0.00;99.90
8896;DHT22;4484;48.928;10.066;2023-01-28T09:50:50;0.00;99.90
8896;DHT22;4484;48.928;10.066;2023-01-28T09:53:31;0.00;99.90
8896;DHT22;4484;48.928;10.066;2023-01-28T09:56:27;0.10;99.90
8896;DHT22;4484;48.928;10.066;2023-01-28T09:58:58;0.10;99.90
8896;DHT22;4484;48.928;10.066;2023-01-28T10:01:53;0.10;99.90
8896;DHT22;4484;48.928;10.066;2023-01-28T10:07:46;0.10;99.90
8896;DHT22;4484;48.928;10.066;2023-01-28T10:11:05;0.10;99.90
8896;DHT22;4484;48.928;10.066;2023-01-28T10:15:49;0.20;99.90
8896;DHT22;4484;48.928;10.066;2023-01-28T10:18:32;0.30;99.90
8896;DHT22;4484;48.928;10.066;2023-01-28T10:21:06;0.30;99.90
8896;DHT22;4484;48.928;10.066;2023-01-28T10:23:44;0.30;99.90
8896;DHT22;4484;48.928;10.066;2023-01-28T10:26:22;0.40;99.90
8896;DHT22;4484;48.928;10.066;2023-01-28T10:28:55;0.40;99.90
8896;DHT22;4484;48.928;10.066;2023-01-28T10:31:29;0.40;99.90
8896;DHT22;4484;48.928;10.066;2023-01-28T10:33:57;0.40;99.90
8896;DHT22;4484;48.928;10.066;2023-01-28T10:36:24;0.50;99.90
8896;DHT22;4484;48.928;10.066;2023-01-28T10:38:51;0.50;99.90
8896;DHT22;4484;48.928;10.066;2023-01-28T10:41:20;0.50;99.90
8896;DHT22;4484;48.928;10.066;2023-01-28T10:43:48;0.40;99.90
8896;DHT22;4484;48.928;10.066;2023-01-28T10:46:42;0.40;99.90
8896;DHT22;4484;48.928;10.066;2023-01-28T10:49:20;0.40;99.90
8896;DHT22;4484;48.928;10.066;2023-01-28T10:51:48;0.40;99.90
8896;DHT22;4484;48.928;10.066;2023-01-28T10:54:27;0.30;99.90
8896;DHT22;4484;48.928;10.066;2023-01-28T10:56:58;0.30;99.90
8896;DHT22;4484;48.928;10.066;2023-01-28T10:59:29;0.30;99.90
8896;DHT22;4484;48.928;10.066;2023-01-28T11:04:26;0.40;99.90
8896;DHT22;4484;48.928;10.066;2023-01-28T11:07:04;0.40;99.90
8896;DHT22;4484;48.928;10.066;2023-01-28T11:09:34;0.40;99.90
8896;DHT22;4484;48.928;10.066;2023-01-28T11:12:18;0.40;99.90
8896;DHT22;4484;48.928;10.066;2023-01-28T11:14:50;0.50;99.90
8896;DHT22;4484;48.928;10.066;2023-01-28T11:17:19;0.50;99.90
8896;DHT22;4484;48.928;10.066;2023-01-28T11:19:55;0.60;99.90
8896;DHT22;4484;48.928;10.066;2023-01-28T11:22:34;0.60;99.90
8896;DHT22;4484;48.928;10.066;2023-01-28T11:25:05;0.60;99.90
8896;DHT22;4484;48.928;10.066;2023-01-28T11:27:39;0.60;99.90
8896;DHT22;4484;48.928;10.066;2023-01-28T11:30:20;0.60;99.90
8896;DHT22;4484;48.928;10.066;2023-01-28T11:35:26;0.50;99.90
8896;DHT22;4484;48.928;10.066;2023-01-28T11:37:57;0.60;99.90
8896;DHT22;4484;48.928;10.066;2023-01-28T11:40:25;0.60;99.90
8896;DHT22;4484;48.928;10.066;2023-01-28T11:42:53;0.60;99.90
8896;DHT22;4484;48.928;10.066;2023-01-28T11:48:13;0.60;99.90
8896;DHT22;4484;48.928;10.066;2023-01-28T11:51:15;0.70;99.90
8896;DHT22;4484;48.928;10.066;2023-01-28T11:54:01;0.80;99.90
8896;DHT22;4484;48.928;10.066;2023-01-28T11:56:39;0.80;99.90
8896;DHT22;4484;48.928;10.066;2023-01-28T11:59:15;0.90;99.90
8896;DHT22;4484;48.928;10.066;2023-01-28T12:01:55;0.90;99.90
8896;DHT22;4484;48.928;10.066;2023-01-28T12:12:50;0.90;99.90
8896;DHT22;4484;48.928;10.066;2023-01-28T12:24:26;0.90;99.90
8896;DHT22;4484;48.928;10.066;2023-01-28T12:35:33;0.80;99.90
8896;DHT22;4484;48.928;10.066;2023-01-28T12:43:32;0.60;99.90
8896;DHT22;4484;48.928;10.066;2023-01-28T12:48:46;0.60;99.90
8896;DHT22;4484;48.928;10.066;2023-01-28T12:51:19;0.60;99.90
8896;DHT22;4484;48.928;10.066;2023-01-28T12:54:10;0.60;99.90
8896;DHT22;4484;48.928;10.066;2023-01-28T12:56:44;0.50;99.90
8896;DHT22;4484;48.928;10.066;2023-01-28T12:59:28;0.50;99.90
8896;DHT22;4484;48.928;10.066;2023-01-28T13:07:35;0.40;99.90
8896;DHT22;4484;48.928;10.066;2023-01-28T13:10:15;0.40;99.90
8896;DHT22;4484;48.928;10.066;2023-01-28T13:12:44;0.40;99.90
8896;DHT22;4484;48.928;10.066;2023-01-28T13:15:15;0.40;99.90
8896;DHT22;4484;48.928;10.066;2023-01-28T13:17:59;0.40;99.90
8896;DHT22;4484;48.928;10.066;2023-01-28T13:20:45;0.50;99.90
8896;DHT22;4484;48.928;10.066;2023-01-28T13:23:39;0.50;99.90
8896;DHT22;4484;48.928;10.066;2023-01-28T13:26:56;0.50;99.90
8896;DHT22;4484;48.928;10.066;2023-01-28T13:31:54;0.60;99.90
8896;DHT22;4484;48.928;10.066;2023-01-28T13:34:34;0.60;99.90
8896;DHT22;4484;48.928;10.066;2023-01-28T13:37:15;0.60;99.90
8896;DHT22;4484;48.928;10.066;2023-01-28T13:39:51;0.60;99.90
8896;DHT22;4484;48.928;10.066;2023-01-28T13:44:50;0.60;99.90
8896;DHT22;4484;48.928;10.066;2023-01-28T13:47:30;0.50;99.90
8896;DHT22;4484;48.928;10.066;2023-01-28T13:50:14;0.50;99.90
8896;DHT22;4484;48.928;10.066;2023-01-28T13:52:55;0.50;99.90
8896;DHT22;4484;48.928;10.066;2023-01-28T13:55:29;0.40;99.90
8896;DHT22;4484;48.928;10.066;2023-01-28T14:03:36;0.30;99.90
8896;DHT22;4484;48.928;10.066;2023-01-28T14:08:51;0.30;99.90
8896;DHT22;4484;48.928;10.066;2023-01-28T14:14:26;0.20;99.90
8896;DHT22;4484;48.928;10.066;2023-01-28T14:17:13;0.20;99.90
8896;DHT22;4484;48.928;10.066;2023-01-28T14:19:45;0.20;99.90
8896;DHT22;4484;48.928;10.066;2023-01-28T14:22:17;0.30;99.90
8896;DHT22;4484;48.928;10.066;2023-01-28T14:24:45;0.30;99.90
8896;DHT22;4484;48.928;10.066;2023-01-28T14:27:35;0.30;99.90
8896;DHT22;4484;48.928;10.066;2023-01-28T14:32:51;0.30;99.90
8896;DHT22;4484;48.928;10.066;2023-01-28T14:35:30;0.30;99.90
8896;DHT22;4484;48.928;10.066;2023-01-28T14:37:59;0.30;99.90
8896;DHT22;4484;48.928;10.066;2023-01-28T14:40:28;0.30;99.90
8896;DHT22;4484;48.928;10.066;2023-01-28T14:42:56;0.30;99.90
8896;DHT22;4484;48.928;10.066;2023-01-28T14:48:43;0.30;99.90
8896;DHT22;4484;48.928;10.066;2023-01-28T14:59:42;0.20;99.90
8896;DHT22;4484;48.928;10.066;2023-01-28T15:02:20;0.20;99.90
8896;DHT22;4484;48.928;10.066;2023-01-28T15:04:48;0.10;99.90
8896;DHT22;4484;48.928;10.066;2023-01-28T15:07:24;0.10;99.90
8896;DHT22;4484;48.928;10.066;2023-01-28T15:10:02;0.10;99.90
8896;DHT22;4484;48.928;10.066;2023-01-28T15:12:33;0.10;99.90
8896;DHT22;4484;48.928;10.066;2023-01-28T15:15:30;0.10;99.90
8896;DHT22;4484;48.928;10.066;2023-01-28T15:18:02;0.00;99.90
8896;DHT22;4484;48.928;10.066;2023-01-28T15:20:30;0.00;99.90
8896;DHT22;4484;48.928;10.066;2023-01-28T15:22:59;0.00;99.90
8896;DHT22;4484;48.928;10.066;2023-01-28T15:25:28;0.00;99.90
8896;DHT22;4484;48.928;10.066;2023-01-28T15:27:58;0.00;99.90
8896;DHT22;4484;48.928;10.066;2023-01-28T15:30:30;0.00;99.90
8896;DHT22;4484;48.928;10.066;2023-01-28T15:33:04;0.00;99.90
8896;DHT22;4484;48.928;10.066;2023-01-28T15:35:34;0.00;99.90
8896;DHT22;4484;48.928;10.066;2023-01-28T15:38:02;0.00;99.90
8896;DHT22;4484;48.928;10.066;2023-01-28T15:40:30;0.00;99.90
8896;DHT22;4484;48.928;10.066;2023-01-28T15:43:16;0.00;99.90
8896;DHT22;4484;48.928;10.066;2023-01-28T15:45:45;0.00;99.90
8896;DHT22;4484;48.928;10.066;2023-01-28T15:48:14;0.00;99.90
8896;DHT22;4484;48.928;10.066;2023-01-28T15:50:42;0.00;99.90
8896;DHT22;4484;48.928;10.066;2023-01-28T15:53:12;-0.10;99.90
8896;DHT22;4484;48.928;10.066;2023-01-28T15:55:41;-0.10;99.90
8896;DHT22;4484;48.928;10.066;2023-01-28T16:00:47;-0.10;99.90
8896;DHT22;4484;48.928;10.066;2023-01-28T16:03:19;-0.10;99.90
8896;DHT22;4484;48.928;10.066;2023-01-28T16:05:58;-0.10;99.90
8896;DHT22;4484;48.928;10.066;2023-01-28T16:08:41;-0.10;99.90
8896;DHT22;4484;48.928;10.066;2023-01-28T16:11:10;-0.20;99.90
8896;DHT22;4484;48.928;10.066;2023-01-28T16:13:42;-0.10;99.90
8896;DHT22;4484;48.928;10.066;2023-01-28T16:16:10;-0.10;99.90
8896;DHT22;4484;48.928;10.066;2023-01-28T16:18:40;-0.10;99.90
8896;DHT22;4484;48.928;10.066;2023-01-28T16:21:11;-0.20;99.90
8896;DHT22;4484;48.928;10.066;2023-01-28T16:23:38;-0.20;99.90
8896;DHT22;4484;48.928;10.066;2023-01-28T16:26:23;-0.20;99.90
8896;DHT22;4484;48.928;10.066;2023-01-28T16:28:50;-0.30;99.90
8896;DHT22;4484;48.928;10.066;2023-01-28T16:31:17;-0.30;99.90
8896;DHT22;4484;48.928;10.066;2023-01-28T16:33:45;-0.30;99.90
8896;DHT22;4484;48.928;10.066;2023-01-28T16:36:14;-0.40;99.90
8896;DHT22;4484;48.928;10.066;2023-01-28T16:38:41;-0.40;99.90
8896;DHT22;4484;48.928;10.066;2023-01-28T16:41:25;-0.40;99.90
8896;DHT22;4484;48.928;10.066;2023-01-28T16:43:52;-0.40;99.90
8896;DHT22;4484;48.928;10.066;2023-01-28T16:46:19;-0.50;99.90
8896;DHT22;4484;48.928;10.066;2023-01-28T16:48:46;-0.50;99.90
8896;DHT22;4484;48.928;10.066;2023-01-28T16:51:15;-0.50;99.90
8896;DHT22;4484;48.928;10.066;2023-01-28T16:53:45;-0.50;99.90
8896;DHT22;4484;48.928;10.066;2023-01-28T16:56:18;-0.50;99.90
8896;DHT22;4484;48.928;10.066;2023-01-28T16:59:09;-0.50;99.90
8896;DHT22;4484;48.928;10.066;2023-01-28T17:01:36;-0.60;99.90
8896;DHT22;4484;48.928;10.066;2023-01-28T17:04:03;-0.50;99.90
8896;DHT22;4484;48.928;10.066;2023-01-28T17:06:39;-0.60;99.90
8896;DHT22;4484;48.928;10.066;2023-01-28T17:09:09;-0.60;99.90
8896;DHT22;4484;48.928;10.066;2023-01-28T17:11:38;-0.60;99.90
8896;DHT22;4484;48.928;10.066;2023-01-28T17:14:08;-0.60;99.90
8896;DHT22;4484;48.928;10.066;2023-01-28T17:16:36;-0.60;99.90
8896;DHT22;4484;48.928;10.066;2023-01-28T17:19:03;-0.60;99.90
8896;DHT22;4484;48.928;10.066;2023-01-28T17:21:30;-0.70;99.90
8896;DHT22;4484;48.928;10.066;2023-01-28T17:23:59;-0.60;99.90
8896;DHT22;4484;48.928;10.066;2023-01-28T17:26:26;-0.60;99.90
8896;DHT22;4484;48.928;10.066;2023-01-28T17:28:54;-0.70;99.90
8896;DHT22;4484;48.928;10.066;2023-01-28T17:31:22;-0.60;99.90
8896;DHT22;4484;48.928;10.066;2023-01-28T17:33:53;-0.60;99.90
8896;DHT22;4484;48.928;10.066;2023-01-28T17:36:20;-0.60;99.90
8896;DHT22;4484;48.928;10.066;2023-01-28T17:38:47;-0.60;99.90
8896;DHT22;4484;48.928;10.066;2023-01-28T17:41:15;-0.60;99.90
8896;DHT22;4484;48.928;10.066;2023-01-28T17:43:54;-0.60;99.90
8896;DHT22;4484;48.928;10.066;2023-01-28T17:46:23;-0.60;99.90
8896;DHT22;4484;48.928;10.066;2023-01-28T17:48:50;-0.70;99.90
8896;DHT22;4484;48.928;10.066;2023-01-28T17:51:17;-0.70;99.90
8896;DHT22;4484;48.928;10.066;2023-01-28T17:53:49;-0.70;99.90
8896;DHT22;4484;48.928;10.066;2023-01-28T17:56:17;-0.70;99.90
8896;DHT22;4484;48.928;10.066;2023-01-28T17:58:52;-0.70;99.90
8896;DHT22;4484;48.928;10.066;2023-01-28T18:01:20;-0.70;99.90
8896;DHT22;4484;48.928;10.066;2023-01-28T18:03:48;-0.70;99.90
8896;DHT22;4484;48.928;10.066;2023-01-28T18:06:15;-0.70;99.90